Time;durP1;ratioP1;P1;durP2;ratioP2;P2;SDS_P1;SDS_P2;PMS_P1;PMS_P2;Temp;Humidity;BMP_temperature;BMP_pressure;BME280_temperature;BME280_humidity;BME280_pressure;Samples;Min_cycle;Max_cycle;Signal;HPM_P1;HPM_P2
2021/06/25 00:01:08;;;;;;;2.20;2.10;;;;;;;19.91;69.80;100585.72;4816434;29;20911;-93
2021/06/25 00:03:33;;;;;;;1.73;1.73;;;;;;;19.94;69.59;100595.28;4811510;29;20952;-93
2021/06/25 00:05:59;;;;;;;2.75;2.60;;;;;;;19.90;69.97;100588.75;4790090;29;20548;-92
2021/06/25 00:08:24;;;;;;;3.30;2.23;;;;;;;19.83;69.86;100591.09;4809301;29;20438;-94
2021/06/25 00:10:50;;;;;;;3.83;2.07;;;;;;;19.79;69.71;100584.59;4790888;29;20438;-93
2021/06/25 00:13:16;;;;;;;2.90;2.20;;;;;;;19.83;69.97;100585.59;4818410;29;20820;-94
2021/06/25 00:15:41;;;;;;;3.70;2.30;;;;;;;19.72;70.28;100581.41;4824854;29;20416;-92
2021/06/25 00:18:08;;;;;;;2.53;2.33;;;;;;;19.75;70.21;100581.63;4818097;29;20505;-92
2021/06/25 00:20:33;;;;;;;2.50;2.40;;;;;;;19.75;70.11;100578.88;4816433;29;20845;-92
2021/06/25 00:22:59;;;;;;;2.40;2.30;;;;;;;19.76;70.48;100588.72;4804618;29;20431;-93
2021/06/25 00:25:24;;;;;;;5.20;3.30;;;;;;;19.77;70.24;100587.63;4803238;29;20827;-91
2021/06/25 00:27:50;;;;;;;4.47;2.77;;;;;;;19.82;69.92;100584.78;4807278;29;20426;-91
2021/06/25 00:30:16;;;;;;;2.50;2.38;;;;;;;19.77;69.96;100578.56;4811475;29;20443;-91
2021/06/25 00:32:46;;;;;;;2.60;2.40;;;;;;;19.67;70.34;100585.06;4795135;29;20492;-94
2021/06/25 00:35:11;;;;;;;2.47;2.38;;;;;;;19.62;70.14;100579.66;4805731;29;20424;-93
2021/06/25 00:37:37;;;;;;;2.33;2.13;;;;;;;19.65;70.52;100582.63;4806177;29;20446;-92
2021/06/25 00:40:04;;;;;;;2.53;2.33;;;;;;;19.62;70.62;100583.22;4805870;29;20513;-91
2021/06/25 00:42:30;;;;;;;3.70;2.60;;;;;;;19.65;70.25;100582.63;4805068;29;20403;-91
2021/06/25 00:44:55;;;;;;;2.47;2.20;;;;;;;19.57;70.73;100582.47;4788764;29;20477;-91
2021/06/25 00:47:20;;;;;;;2.40;2.30;;;;;;;19.62;70.75;100577.72;4805765;29;20424;-91
2021/06/25 00:49:46;;;;;;;2.40;2.40;;;;;;;19.61;70.80;100575.25;4798523;29;20784;-91
2021/06/25 00:52:17;;;;;;;3.35;2.58;;;;;;;19.55;71.23;100585.53;4824320;29;20799;-92
2021/06/25 00:54:43;;;;;;;3.53;3.03;;;;;;;19.48;71.74;100585.09;4813065;29;20427;-92
2021/06/25 00:57:09;;;;;;;3.13;3.03;;;;;;;19.48;72.05;100579.63;4815811;29;20452;-91
2021/06/25 00:59:34;;;;;;;2.92;2.72;;;;;;;19.51;72.49;100579.00;4798068;29;20429;-91
2021/06/25 01:01:59;;;;;;;3.40;3.20;;;;;;;19.53;72.44;100575.94;4806464;29;20536;-92
2021/06/25 01:04:24;;;;;;;3.30;3.10;;;;;;;19.53;72.50;100585.00;4817382;29;20440;-90
2021/06/25 01:06:50;;;;;;;3.37;3.10;;;;;;;19.53;72.60;100576.75;4818902;29;20437;-92
2021/06/25 01:09:19;;;;;;;3.00;2.87;;;;;;;19.44;72.81;100580.50;4813032;29;20938;-91
2021/06/25 01:11:45;;;;;;;3.10;2.90;;;;;;;19.44;73.12;100583.25;4803560;29;20983;-91
2021/06/25 01:14:11;;;;;;;3.25;3.05;;;;;;;19.50;73.09;100579.28;4805437;29;20415;-90
2021/06/25 01:16:36;;;;;;;3.60;3.37;;;;;;;19.52;73.49;100575.16;4803720;29;20427;-91
2021/06/25 01:19:02;;;;;;;4.30;3.13;;;;;;;19.57;73.59;100582.47;4786099;29;20530;-91
2021/06/25 01:21:27;;;;;;;3.53;3.00;;;;;;;19.57;73.47;100576.97;4804627;29;20430;-91
2021/06/25 01:23:53;;;;;;;3.17;2.97;;;;;;;19.57;73.68;100575.06;4822411;29;20463;-91
2021/06/25 01:26:18;;;;;;;4.03;3.57;;;;;;;19.60;73.63;100573.63;4814112;29;20492;-91
2021/06/25 01:28:44;;;;;;;3.67;3.40;;;;;;;19.52;73.78;100572.41;4798528;29;20466;-91
2021/06/25 01:31:10;;;;;;;4.07;3.78;;;;;;;19.54;73.72;100566.59;4804894;29;20429;-90
2021/06/25 01:33:36;;;;;;;4.00;3.80;;;;;;;19.59;73.90;100570.06;4818762;29;20438;-92
2021/06/25 01:36:02;;;;;;;3.50;3.30;;;;;;;19.59;73.77;100570.06;4786869;30;20511;-90
2021/06/25 01:38:28;;;;;;;4.78;4.35;;;;;;;19.56;73.77;100570.66;4802870;29;20431;-90
2021/06/25 01:40:53;;;;;;;4.67;4.37;;;;;;;19.52;73.94;100572.41;4800717;29;20480;-89
2021/06/25 01:43:20;;;;;;;8.07;4.88;;;;;;;19.50;74.28;100571.88;4802775;29;20886;-88
2021/06/25 01:45:47;;;;;;;5.65;5.15;;;;;;;19.51;74.14;100568.00;4818956;29;20419;-90
2021/06/25 01:48:12;;;;;;;5.25;4.85;;;;;;;19.48;74.28;100568.63;4806299;29;20490;-88
2021/06/25 01:50:42;;;;;;;6.23;5.70;;;;;;;19.49;74.47;100574.94;4800028;29;20836;-89
2021/06/25 01:53:11;;;;;;;8.02;5.70;;;;;;;19.43;74.60;100565.16;4798410;29;20435;-89
2021/06/25 01:55:41;;;;;;;7.27;6.47;;;;;;;19.37;74.85;100564.38;4804667;29;20514;-88
2021/06/25 01:58:19;;;;;;;7.47;6.45;;;;;;;19.36;74.75;100561.94;4801684;29;20476;-89
2021/06/25 02:00:56;;;;;;;7.43;6.80;;;;;;;19.38;74.87;100570.69;4803124;29;20804;-89
2021/06/25 02:03:21;;;;;;;8.07;6.65;;;;;;;19.34;75.01;100564.97;4803444;29;20492;-89
2021/06/25 02:05:47;;;;;;;7.70;6.90;;;;;;;19.36;75.02;100568.25;4796560;29;20439;-89
2021/06/25 02:08:12;;;;;;;7.43;6.90;;;;;;;19.34;75.09;100564.97;4793672;29;20911;-89
2021/06/25 02:10:37;;;;;;;7.10;6.60;;;;;;;19.30;75.32;100557.66;4803407;29;20515;-89
2021/06/25 02:13:03;;;;;;;8.50;7.60;;;;;;;19.34;75.21;100555.91;4804803;29;20895;-89
2021/06/25 02:15:28;;;;;;;8.27;7.10;;;;;;;19.32;75.33;100558.97;4801435;29;20431;-89
2021/06/25 02:17:53;;;;;;;8.68;7.97;;;;;;;19.40;75.23;100562.94;4801812;29;20449;-89
2021/06/25 02:20:19;;;;;;;9.87;8.17;;;;;;;19.34;75.45;100559.47;4805478;29;20431;-90
2021/06/25 02:22:44;;;;;;;8.23;7.63;;;;;;;19.38;74.99;100559.69;4807776;29;20426;-89
2021/06/25 02:25:11;;;;;;;8.60;7.80;;;;;;;19.41;75.19;100564.63;4801588;29;20459;-89
2021/06/25 02:27:37;;;;;;;7.90;7.20;;;;;;;19.37;75.09;100558.06;4794185;29;20428;-89
2021/06/25 02:30:09;;;;;;;9.52;8.63;;;;;;;19.42;74.91;100549.78;4798555;29;20496;-90
2021/06/25 02:32:35;;;;;;;8.75;7.88;;;;;;;19.32;74.98;100545.22;4807710;29;20508;-90
2021/06/25 02:35:00;;;;;;;10.30;9.30;;;;;;;19.31;75.55;100542.78;4802385;29;20427;-90
2021/06/25 02:37:26;;;;;;;11.63;9.00;;;;;;;19.28;75.44;100546.13;4797032;29;20434;-90
2021/06/25 02:39:51;;;;;;;10.70;9.55;;;;;;;19.26;75.56;100549.19;4798525;29;20764;-89
2021/06/25 02:42:16;;;;;;;10.53;9.43;;;;;;;19.18;76.12;100544.34;4807871;29;20514;-89
2021/06/25 02:44:41;;;;;;;10.20;9.23;;;;;;;19.13;75.90;100547.19;4801791;29;20844;-89
2021/06/25 02:47:07;;;;;;;10.03;9.10;;;;;;;19.16;75.71;100546.59;4807635;29;20907;-89
2021/06/25 02:49:32;;;;;;;11.77;9.27;;;;;;;19.15;76.02;100547.72;4806347;29;20427;-89
2021/06/25 02:51:57;;;;;;;11.30;9.57;;;;;;;19.18;76.05;100552.59;4806143;29;20510;-90
2021/06/25 02:54:23;;;;;;;9.83;8.83;;;;;;;19.22;75.75;100547.31;4791272;29;20486;-89
2021/06/25 02:56:48;;;;;;;10.23;9.23;;;;;;;19.22;75.93;100548.16;4805974;29;20895;-88
2021/06/25 02:59:13;;;;;;;10.00;8.95;;;;;;;19.21;75.99;100549.25;4806321;29;20465;-88
2021/06/25 03:01:38;;;;;;;10.83;9.33;;;;;;;19.14;76.07;100555.13;4805623;29;20503;-90
2021/06/25 03:04:04;;;;;;;9.83;8.70;;;;;;;19.08;76.30;100548.09;4804512;29;20431;-88
2021/06/25 03:06:29;;;;;;;9.20;8.30;;;;;;;19.14;76.19;100557.06;4805856;29;20433;-88
2021/06/25 03:08:54;;;;;;;9.43;8.53;;;;;;;19.12;76.21;100556.56;4802621;29;20459;-89
2021/06/25 03:11:20;;;;;;;8.13;7.33;;;;;;;19.13;76.08;100553.50;4798905;29;20427;-88
2021/06/25 03:13:45;;;;;;;7.40;6.80;;;;;;;19.15;76.15;100555.94;4792914;29;20436;-88
2021/06/25 03:16:10;;;;;;;12.10;7.87;;;;;;;19.17;76.06;100560.03;4806900;29;20880;-89
2021/06/25 03:18:35;;;;;;;9.07;7.73;;;;;;;19.17;76.03;100549.03;4799105;29;20439;-88
2021/06/25 03:21:01;;;;;;;9.53;7.50;;;;;;;19.23;75.99;100549.78;4805336;29;20438;-89
2021/06/25 03:23:26;;;;;;;8.40;7.40;;;;;;;19.17;75.79;100549.03;4804627;29;20803;-89
2021/06/25 03:25:52;;;;;;;8.05;7.25;;;;;;;19.15;76.13;100548.53;4804697;29;20437;-89
2021/06/25 03:28:17;;;;;;;8.10;7.43;;;;;;;19.12;75.90;100546.38;4805394;29;20423;-89
2021/06/25 03:30:43;;;;;;;8.57;7.78;;;;;;;19.13;75.98;100550.75;4806669;29;20407;-88
2021/06/25 03:33:08;;;;;;;9.53;7.70;;;;;;;19.15;75.91;100547.72;4800655;29;20445;-89
2021/06/25 03:35:34;;;;;;;10.32;7.78;;;;;;;19.10;76.13;100548.59;4804685;29;20518;-88
2021/06/25 03:38:00;;;;;;;8.70;7.47;;;;;;;19.07;76.26;100542.88;4804743;29;20439;-88
2021/06/25 03:40:29;;;;;;;9.68;7.78;;;;;;;19.12;76.24;100540.06;4803852;29;20496;-89
2021/06/25 03:42:55;;;;;;;8.77;7.97;;;;;;;19.16;76.21;100550.13;4804455;29;20464;-89
2021/06/25 03:45:20;;;;;;;13.53;8.60;;;;;;;19.20;76.07;100544.06;4799221;29;20658;-90
2021/06/25 03:47:45;;;;;;;9.97;8.97;;;;;;;19.17;76.50;100548.22;4789649;29;20427;-91
2021/06/25 03:50:12;;;;;;;11.00;9.50;;;;;;;19.19;76.20;100554.25;4790317;29;20436;-92
2021/06/25 03:52:38;;;;;;;10.50;9.40;;;;;;;19.17;76.47;100550.97;4792143;29;20441;-90
2021/06/25 03:55:07;;;;;;;11.20;9.70;;;;;;;19.15;76.28;100556.78;4792941;29;20534;-91
2021/06/25 03:57:32;;;;;;;11.70;10.55;;;;;;;19.18;76.48;100547.09;4783304;29;20431;-91
2021/06/25 03:59:57;;;;;;;10.97;9.83;;;;;;;19.13;76.38;100547.19;4787062;29;20491;-93
2021/06/25 04:02:23;;;;;;;13.50;10.57;;;;;;;19.15;76.23;100548.53;4790855;29;20424;-92
2021/06/25 04:04:48;;;;;;;13.60;10.75;;;;;;;19.12;76.42;100549.13;4778342;29;20426;-92
2021/06/25 04:07:13;;;;;;;12.60;11.30;;;;;;;19.15;76.59;100553.19;4792914;29;20491;-92
2021/06/25 04:09:39;;;;;;;13.03;11.27;;;;;;;19.15;76.55;100550.47;4805159;29;20447;-93
2021/06/25 04:12:05;;;;;;;13.32;11.93;;;;;;;19.16;76.50;100550.13;4789128;29;20779;-92
2021/06/25 04:14:30;;;;;;;12.77;11.40;;;;;;;19.10;76.64;100545.03;4801779;29;20460;-91
2021/06/25 04:16:55;;;;;;;15.37;11.77;;;;;;;19.11;76.55;100552.16;4796282;29;20433;-91
2021/06/25 04:19:21;;;;;;;14.03;12.53;;;;;;;19.11;76.90;100550.25;4793880;29;20423;-91
2021/06/25 04:21:47;;;;;;;16.27;13.02;;;;;;;19.13;76.34;100549.94;4786446;29;20433;-91
2021/06/25 04:24:12;;;;;;;28.20;13.97;;;;;;;19.09;76.90;100554.41;4786639;29;20433;-92
2021/06/25 04:26:38;;;;;;;14.68;12.98;;;;;;;19.11;76.71;100558.47;4791896;29;20497;-91
2021/06/25 04:29:08;;;;;;;17.80;13.68;;;;;;;19.14;76.87;100549.63;4787056;29;20538;-90
2021/06/25 04:31:34;;;;;;;16.35;13.77;;;;;;;19.13;76.63;100556.22;4789911;29;20486;-90
2021/06/25 04:34:00;;;;;;;17.98;13.68;;;;;;;19.14;76.67;100551.56;4804925;29;20449;-91
2021/06/25 04:36:26;;;;;;;18.15;14.45;;;;;;;19.13;76.90;100558.19;4816379;29;20426;-91
2021/06/25 04:38:51;;;;;;;19.13;14.30;;;;;;;19.09;76.78;100562.66;4801402;29;20893;-90
2021/06/25 04:41:16;;;;;;;19.93;15.13;;;;;;;19.18;76.46;100560.84;4805328;29;20923;-90
2021/06/25 04:43:42;;;;;;;19.00;15.85;;;;;;;19.21;76.85;100557.50;4804025;29;20421;-89
2021/06/25 04:46:07;;;;;;;22.47;16.37;;;;;;;19.25;76.48;100561.28;4807243;29;20482;-90
2021/06/25 04:48:34;;;;;;;22.08;17.55;;;;;;;19.31;76.44;100567.50;4799360;29;20436;-89
2021/06/25 04:51:00;;;;;;;22.00;17.67;;;;;;;19.28;76.35;100568.91;4800935;29;20418;-90
2021/06/25 04:53:25;;;;;;;24.90;18.53;;;;;;;19.25;76.50;100572.28;4799355;29;20445;-91
2021/06/25 04:55:51;;;;;;;23.80;18.95;;;;;;;19.31;76.23;100562.81;4799004;29;20950;-92
2021/06/25 04:58:17;;;;;;;31.10;19.87;;;;;;;19.31;76.32;100573.81;4801349;29;21204;-92
2021/06/25 05:00:44;;;;;;;25.65;19.13;;;;;;;19.27;76.80;100560.97;4800419;29;20430;-91
2021/06/25 05:03:10;;;;;;;26.73;19.80;;;;;;;19.33;76.54;100570.78;4799366;29;20430;-91
2021/06/25 05:05:37;;;;;;;25.33;20.07;;;;;;;19.31;76.37;100571.06;4800118;29;20463;-90
2021/06/25 05:08:04;;;;;;;28.20;20.85;;;;;;;19.32;76.52;100571.88;4808973;29;20782;-91
2021/06/25 05:10:30;;;;;;;25.65;19.90;;;;;;;19.39;76.29;100567.66;4812131;29;20427;-90
2021/06/25 05:13:01;;;;;;;26.15;20.80;;;;;;;19.43;76.07;100574.19;4799426;29;20484;-91
2021/06/25 05:15:29;;;;;;;26.42;20.98;;;;;;;19.40;76.00;100568.44;4813876;29;20841;-92
2021/06/25 05:18:13;;;;;;;27.50;21.38;;;;;;;19.35;75.99;100563.88;4771176;30;20444;-91
2021/06/25 05:20:39;;;;;;;24.55;20.05;;;;;;;19.35;76.36;100568.53;4816743;29;20459;-93
2021/06/25 05:23:04;;;;;;;25.23;20.55;;;;;;;19.33;76.18;100568.81;4813141;29;20782;-92
2021/06/25 05:25:32;;;;;;;26.43;20.77;;;;;;;19.28;76.37;100563.44;4790118;29;20431;-93
2021/06/25 05:27:58;;;;;;;26.33;19.92;;;;;;;19.24;76.01;100567.06;4788143;29;20455;-92
2021/06/25 05:30:23;;;;;;;24.15;19.90;;;;;;;19.27;76.25;100577.44;4805528;29;20509;-91
2021/06/25 05:32:49;;;;;;;24.00;18.87;;;;;;;19.23;76.37;100580.00;4800670;29;20467;-93
2021/06/25 05:35:14;;;;;;;23.83;18.00;;;;;;;19.25;76.15;100586.00;4799026;29;20942;-92
2021/06/25 05:37:45;;;;;;;20.70;17.60;;;;;;;19.18;76.28;100572.66;4786269;29;20906;-93
2021/06/25 05:40:11;;;;;;;22.48;17.75;;;;;;;19.25;75.97;100574.19;4793524;29;20957;-91
2021/06/25 05:42:40;;;;;;;20.13;17.33;;;;;;;19.18;76.20;100582.81;4801947;29;20427;-91
2021/06/25 05:45:05;;;;;;;21.38;16.38;;;;;;;19.14;75.73;100570.78;4802047;29;20415;-90
2021/06/25 05:47:33;;;;;;;20.15;16.67;;;;;;;19.18;76.12;100578.16;4788898;29;20926;-92
2021/06/25 05:50:11;;;;;;;18.48;16.27;;;;;;;19.25;75.73;100580.50;4798326;29;20423;-93
2021/06/25 05:52:38;;;;;;;20.60;16.20;;;;;;;19.33;75.58;100585.31;4805797;29;20835;-94
2021/06/25 05:55:25;;;;;;;17.60;14.95;;;;;;;19.30;75.47;100588.66;4774764;30;20502;-95
2021/06/25 05:57:51;;;;;;;17.52;14.40;;;;;;;19.31;75.42;100592.22;4786389;29;20919;-87
2021/06/25 06:00:17;;;;;;;17.40;13.55;;;;;;;19.25;75.76;100586.00;4785035;29;20515;-90
2021/06/25 06:02:42;;;;;;;16.17;14.45;;;;;;;19.28;75.48;100585.41;4793238;29;20430;-89
2021/06/25 06:05:08;;;;;;;17.17;14.18;;;;;;;19.35;75.62;100588.59;4788880;29;20939;-88
2021/06/25 06:07:34;;;;;;;16.02;14.20;;;;;;;19.35;75.72;100585.84;4798201;29;20443;-88
2021/06/25 06:09:59;;;;;;;16.23;13.43;;;;;;;19.35;75.67;100593.28;4792397;29;20445;-89
2021/06/25 06:12:25;;;;;;;13.15;11.45;;;;;;;19.40;75.73;100599.53;4789680;30;20436;-90
2021/06/25 06:14:50;;;;;;;11.03;9.93;;;;;;;19.42;75.35;100591.00;4796784;29;20431;-89
2021/06/25 06:17:20;;;;;;;10.00;9.03;;;;;;;19.36;75.29;100597.66;4802150;29;20440;-89
2021/06/25 06:19:49;;;;;;;9.13;7.88;;;;;;;19.37;75.27;100591.84;4800338;29;20461;-89
2021/06/25 06:33:34;;;;;;;5.80;4.28;;;;;;;19.98;73.05;100605.41;4803066;29;20470;-92
2021/06/25 06:35:57;;;;;;;4.00;3.70;;;;;;;19.82;73.46;100609.53;4794282;29;20449;-91
2021/06/25 06:38:25;;;;;;;4.40;4.00;;;;;;;19.79;73.84;100615.63;4817131;29;20437;-92
2021/06/25 06:40:50;;;;;;;4.18;3.83;;;;;;;19.72;73.75;100611.66;4822111;29;20894;-90
2021/06/25 06:43:15;;;;;;;3.83;3.63;;;;;;;19.66;74.10;100619.97;4825654;29;20478;-88
2021/06/25 06:45:41;;;;;;;3.83;3.50;;;;;;;19.60;74.11;100617.63;4808596;29;21020;-90
2021/06/25 06:48:07;;;;;;;3.20;3.00;;;;;;;19.66;74.34;100619.97;4805186;29;20441;-90
2021/06/25 06:50:35;;;;;;;3.30;3.10;;;;;;;19.55;74.09;100624.03;4807211;29;20493;-90
2021/06/25 06:53:00;;;;;;;3.47;3.27;;;;;;;19.45;74.39;100623.38;4806248;29;20443;-91
2021/06/25 06:55:26;;;;;;;6.10;3.10;;;;;;;19.36;74.72;100617.72;4809847;29;20447;-89
2021/06/25 06:57:51;;;;;;;4.13;3.07;;;;;;;19.30;74.59;100621.63;4811228;29;20442;-90
2021/06/25 07:00:18;;;;;;;3.03;2.90;;;;;;;19.29;74.79;100622.78;4813693;29;20514;-90
2021/06/25 07:02:44;;;;;;;2.63;2.53;;;;;;;19.28;74.75;100625.81;4799775;29;20427;-88
2021/06/25 07:05:11;;;;;;;2.55;2.45;;;;;;;19.17;74.65;100623.22;4819855;29;20462;-90
2021/06/25 07:07:37;;;;;;;3.10;2.60;;;;;;;19.18;74.45;100622.09;4809206;29;20438;-90
2021/06/25 07:10:05;;;;;;;5.00;3.00;;;;;;;19.23;74.71;100621.22;4824502;29;20422;-90
2021/06/25 07:12:30;;;;;;;4.38;2.20;;;;;;;19.31;74.49;100628.78;4807367;29;20440;-93
2021/06/25 07:14:55;;;;;;;3.70;2.70;;;;;;;19.29;74.28;100622.78;4813725;29;20416;-89
2021/06/25 07:17:21;;;;;;;2.58;2.40;;;;;;;19.31;74.02;100622.47;4811677;29;20478;-90
2021/06/25 07:19:48;;;;;;;2.83;2.40;;;;;;;19.50;73.77;100635.09;4812105;29;20443;-91
2021/06/25 07:22:13;;;;;;;7.40;3.30;;;;;;;19.63;73.33;100628.81;4806835;29;20439;-87
2021/06/25 07:24:38;;;;;;;2.43;2.33;;;;;;;19.79;72.91;100634.09;4808066;29;20434;-91
2021/06/25 07:27:05;;;;;;;2.08;1.98;;;;;;;19.88;72.43;100638.59;4809099;29;20927;-92
2021/06/25 07:29:30;;;;;;;2.20;2.10;;;;;;;19.77;72.99;100639.88;4806145;29;20514;-91
2021/06/25 07:31:56;;;;;;;2.17;2.07;;;;;;;19.51;73.25;100638.66;4820625;29;20505;-91
2021/06/25 07:34:21;;;;;;;2.30;2.20;;;;;;;19.40;73.47;100640.75;4794184;29;20463;-91
2021/06/25 07:36:46;;;;;;;2.30;2.10;;;;;;;19.37;73.65;100643.25;4835111;29;20784;-91
2021/06/25 07:39:12;;;;;;;1.93;1.93;;;;;;;19.37;73.71;100644.06;4805263;29;20427;-90
2021/06/25 07:41:38;;;;;;;2.40;2.20;;;;;;;19.43;73.74;100650.34;4807032;29;20502;-90
2021/06/25 07:44:04;;;;;;;2.53;2.42;;;;;;;19.37;73.94;100648.75;4791553;29;20430;-91
2021/06/25 07:46:29;;;;;;;2.83;2.60;;;;;;;19.27;73.39;100643.41;4803091;29;20437;-90
2021/06/25 07:48:55;;;;;;;2.80;2.70;;;;;;;19.20;73.93;100654.75;4789930;29;20431;-91
2021/06/25 07:51:20;;;;;;;4.47;3.00;;;;;;;19.21;73.89;100647.34;4801332;29;20749;-93
2021/06/25 07:53:46;;;;;;;2.77;2.67;;;;;;;19.08;74.38;100646.97;4790003;29;20519;-91
2021/06/25 07:56:13;;;;;;;2.97;2.80;;;;;;;19.27;73.66;100646.16;4820319;29;20455;-91
2021/06/25 07:58:38;;;;;;;2.72;2.63;;;;;;;19.29;73.89;100644.75;4808515;29;20441;-91
2021/06/25 08:01:04;;;;;;;3.37;3.20;;;;;;;19.36;73.34;100647.13;4790557;29;20484;-91
2021/06/25 08:03:29;;;;;;;3.60;3.30;;;;;;;19.50;72.68;100640.59;4811564;29;20911;-91
2021/06/25 08:05:55;;;;;;;3.28;3.00;;;;;;;19.76;72.28;100645.69;4810823;29;20507;-92
2021/06/25 08:08:20;;;;;;;2.93;2.70;;;;;;;19.95;71.37;100650.00;4819466;29;20499;-91
2021/06/25 08:10:46;;;;;;;2.78;2.58;;;;;;;20.10;71.35;100644.22;4811078;29;20430;-91
2021/06/25 08:13:11;;;;;;;3.70;3.40;;;;;;;19.95;71.13;100641.75;4797648;29;20934;-91
2021/06/25 08:15:37;;;;;;;3.55;3.33;;;;;;;19.90;71.61;100644.59;4793903;29;20529;-92
2021/06/25 08:18:02;;;;;;;6.10;3.63;;;;;;;19.81;71.62;100649.16;4792066;29;20443;-93
2021/06/25 08:20:28;;;;;;;4.07;3.63;;;;;;;19.75;71.62;100646.78;4795885;29;20435;-90
2021/06/25 08:22:53;;;;;;;3.92;3.72;;;;;;;19.77;71.29;100648.13;4796781;29;20442;-90
2021/06/25 08:25:19;;;;;;;4.23;3.77;;;;;;;19.79;71.89;100645.88;4805147;29;20429;-92
2021/06/25 08:27:44;;;;;;;4.47;4.13;;;;;;;19.80;71.94;100646.69;4801780;29;20417;-86
2021/06/25 08:30:11;;;;;;;3.70;3.40;;;;;;;19.94;71.35;100642.88;4829895;29;21143;-87
2021/06/25 08:32:37;;;;;;;4.60;4.00;;;;;;;20.26;70.66;100644.75;4803382;29;20959;-89
2021/06/25 08:35:04;;;;;;;3.95;3.55;;;;;;;20.43;69.93;100646.94;4814286;29;20498;-86
2021/06/25 08:37:29;;;;;;;3.90;3.70;;;;;;;20.54;69.74;100640.94;4807826;29;20498;-92
2021/06/25 08:39:55;;;;;;;4.10;3.70;;;;;;;20.54;69.65;100643.69;4834572;29;20423;-91
2021/06/25 08:42:20;;;;;;;4.07;3.77;;;;;;;20.28;69.72;100648.06;4789186;29;20919;-92
2021/06/25 08:44:46;;;;;;;4.28;3.97;;;;;;;19.91;70.78;100639.91;4804396;29;20514;-90
2021/06/25 08:47:11;;;;;;;4.53;4.23;;;;;;;19.83;71.63;100644.16;4792019;29;20516;-86
2021/06/25 08:49:41;;;;;;;4.32;3.92;;;;;;;19.80;71.92;100646.69;4808782;29;20480;-92
2021/06/25 08:52:06;;;;;;;5.60;4.18;;;;;;;19.66;72.68;100649.41;4820849;29;20454;-93
2021/06/25 08:54:33;;;;;;;4.80;4.40;;;;;;;19.62;72.91;100646.47;4793191;29;20427;-88
2021/06/25 08:57:03;;;;;;;6.10;4.70;;;;;;;19.45;73.34;100640.69;4804453;29;20768;-95
2021/06/25 08:59:30;;;;;;;5.30;4.90;;;;;;;19.38;73.49;100642.97;4785667;29;23211;-93
2021/06/25 09:01:56;;;;;;;4.90;4.60;;;;;;;19.47;73.35;100643.13;4788804;29;20418;-93
2021/06/25 09:04:40;;;;;;;5.75;5.28;;;;;;;19.47;73.55;100643.94;4824622;29;20535;-92
2021/06/25 09:07:07;;;;;;;4.60;4.40;;;;;;;19.56;73.39;100635.84;4818739;29;20428;-91
2021/06/25 09:09:40;;;;;;;5.15;4.35;;;;;;;19.63;73.09;100641.75;4804083;29;20415;-91
2021/06/25 09:12:11;;;;;;;4.10;3.72;;;;;;;19.73;72.76;100644.31;4803390;29;20568;-93
2021/06/25 09:15:05;;;;;;;3.90;3.60;;;;;;;19.73;72.62;100652.59;4801191;29;20421;-92
2021/06/25 09:17:32;;;;;;;3.75;3.55;;;;;;;19.69;72.29;100648.81;4813170;29;20498;-93
2021/06/25 09:19:58;;;;;;;4.18;3.55;;;;;;;19.67;72.61;100651.84;4803746;29;20518;-92
2021/06/25 09:22:24;;;;;;;3.57;3.37;;;;;;;19.63;72.69;100645.31;4818864;29;20808;-92
2021/06/25 09:25:04;;;;;;;4.43;4.13;;;;;;;19.66;72.86;100643.91;4774828;30;20437;-92
2021/06/25 09:27:31;;;;;;;3.72;3.53;;;;;;;19.69;72.45;100643.31;4787432;29;20431;-93
2021/06/25 09:29:56;;;;;;;6.32;4.18;;;;;;;19.79;72.64;100643.13;4804076;29;20436;-93
2021/06/25 09:32:35;;;;;;;4.47;4.10;;;;;;;20.02;72.21;100652.38;4810138;29;20474;-92
2021/06/25 09:35:12;;;;;;;4.18;3.83;;;;;;;20.19;71.40;100655.34;4789143;29;20441;-92
2021/06/25 09:37:45;;;;;;;4.97;4.72;;;;;;;20.11;72.03;100651.38;4783906;29;20863;-92
2021/06/25 09:40:13;;;;;;;5.97;5.53;;;;;;;20.15;71.96;100657.88;4794682;29;20791;-91
2021/06/25 09:42:39;;;;;;;7.10;6.50;;;;;;;20.26;72.05;100654.94;4784813;29;20982;-93
2021/06/25 09:45:24;;;;;;;10.63;8.93;;;;;;;20.35;72.13;100651.19;4786771;30;20507;-92
2021/06/25 09:47:54;;;;;;;8.70;8.00;;;;;;;20.46;71.90;100652.63;4770820;30;20432;-93
2021/06/25 09:50:28;;;;;;;10.93;9.88;;;;;;;20.40;71.23;100650.28;4770957;30;20495;-94
2021/06/25 09:53:05;;;;;;;11.27;10.17;;;;;;;20.31;71.87;100658.47;4786879;30;20448;-93
2021/06/25 09:55:53;;;;;;;11.80;10.60;;;;;;;20.26;72.49;100646.69;4770622;30;20490;-92
2021/06/25 10:03:52;;;;;;;11.43;10.38;;;;;;;20.52;72.34;100661.59;4783098;29;20421;-93
2021/06/25 10:06:20;;;;;;;13.15;11.95;;;;;;;20.53;70.98;100653.06;4784925;29;20436;-92
2021/06/25 10:08:46;;;;;;;13.73;12.43;;;;;;;20.40;71.51;100658.56;4787551;29;20432;-92
2021/06/25 10:11:14;;;;;;;13.05;11.75;;;;;;;20.35;71.67;100662.19;4786929;29;20935;-92
2021/06/25 10:13:40;;;;;;;13.20;11.90;;;;;;;20.32;71.76;100657.31;4799585;29;20437;-92
2021/06/25 10:16:07;;;;;;;13.40;12.10;;;;;;;20.31;71.94;100669.47;4760649;30;20434;-93
2021/06/25 10:18:40;;;;;;;14.98;13.60;;;;;;;20.25;71.83;100658.81;4765245;30;20441;-93
2021/06/25 10:21:15;;;;;;;14.48;13.18;;;;;;;20.16;71.84;100662.25;4782794;30;20419;-91
2021/06/25 10:23:52;;;;;;;14.27;12.82;;;;;;;20.21;71.66;100669.63;4768693;30;20459;-94
2021/06/25 10:26:20;;;;;;;14.85;13.50;;;;;;;20.31;71.72;100663.97;4785252;30;20428;-92
2021/06/25 10:28:47;;;;;;;14.82;13.32;;;;;;;20.47;71.19;100669.97;4781680;29;21954;-93
2021/06/25 10:31:14;;;;;;;15.65;14.15;;;;;;;20.54;71.21;100676.72;4770374;30;20405;-94
2021/06/25 10:33:42;;;;;;;14.60;13.30;;;;;;;20.59;71.08;100673.84;4794011;29;20949;-89
2021/06/25 10:36:14;;;;;;;14.80;13.40;;;;;;;20.62;70.94;100667.72;4787827;29;20445;-91
2021/06/25 10:38:43;;;;;;;15.10;13.70;;;;;;;20.56;70.79;100668.97;4804587;29;20467;-85
2021/06/25 10:41:11;;;;;;;16.27;14.68;;;;;;;20.55;70.67;100664.56;4787229;29;20432;-86
2021/06/25 10:43:40;;;;;;;16.10;14.35;;;;;;;20.44;70.65;100670.59;4783673;29;20424;-94
2021/06/25 10:46:06;;;;;;;17.50;15.68;;;;;;;20.61;70.14;100671.59;4803066;29;20466;-93
2021/06/25 10:48:39;;;;;;;16.27;14.75;;;;;;;20.73;69.84;100667.53;4789168;29;20440;-92
2021/06/25 10:51:34;;;;;;;16.73;15.15;;;;;;;21.02;68.70;100671.56;4789379;29;20433;-93
2021/06/25 10:54:03;;;;;;;17.95;16.15;;;;;;;21.33;68.05;100680.00;4797134;29;20433;-93
2021/06/25 10:56:28;;;;;;;16.95;15.52;;;;;;;21.53;67.65;100685.03;4789689;30;20539;-92
2021/06/25 10:59:19;;;;;;;17.27;15.67;;;;;;;21.46;67.32;100687.41;4802756;29;20510;-92
2021/06/25 11:01:55;;;;;;;16.92;15.48;;;;;;;21.44;67.32;100689.66;4788977;29;20558;-92
2021/06/25 11:04:41;;;;;;;16.30;14.82;;;;;;;21.42;68.13;100680.06;4802789;29;20779;-91
2021/06/25 11:07:16;;;;;;;16.25;14.95;;;;;;;21.69;67.73;100682.72;4777484;29;20437;-92
2021/06/25 11:09:56;;;;;;;16.65;15.13;;;;;;;21.83;67.40;100680.72;4802745;29;20794;-91
2021/06/25 11:12:24;;;;;;;17.20;15.57;;;;;;;21.90;67.38;100691.34;4788585;30;20429;-91
2021/06/25 11:14:52;;;;;;;18.67;16.83;;;;;;;21.87;66.98;100687.22;4786791;29;20927;-91
2021/06/25 11:17:49;;;;;;;18.55;16.58;;;;;;;22.03;66.88;100676.66;4786737;30;20436;-89
2021/06/25 11:20:15;;;;;;;18.70;16.90;;;;;;;22.27;65.96;100682.63;4787678;29;21310;-92
2021/06/25 11:22:41;;;;;;;18.52;16.73;;;;;;;22.57;65.46;100683.72;4789001;30;20468;-93
2021/06/25 11:25:13;;;;;;;18.60;17.00;;;;;;;22.72;64.16;100688.88;4795914;29;20559;-94
2021/06/25 11:28:18;;;;;;;19.73;17.92;;;;;;;22.80;63.66;100678.97;4801372;29;20522;-93
2021/06/25 11:30:50;;;;;;;19.23;17.45;;;;;;;22.71;63.83;100688.06;4803088;29;20464;-93
2021/06/25 11:33:41;;;;;;;20.08;18.10;;;;;;;22.58;63.83;100686.19;4794536;29;20790;-89
2021/06/25 11:36:31;;;;;;;20.05;17.95;;;;;;;22.49;64.76;100684.53;4789944;29;20435;-92
2021/06/25 11:39:30;;;;;;;18.98;17.27;;;;;;;22.53;64.17;100682.72;4807028;29;20846;-93